Terminal Aerodrome Forecast
Issued by NWS

Home | Current Version | Previous Version | Text Only | Print | Product List | Glossary On
Versions: 1 2 3 4 5 6 7 8 9 10 11 12 13 14 15 16 17 18
000
FTUS43 KGRR 011738
TAFMKG
TAF
KMKG 011738Z 0118/0218 04010KT P6SM OVC015
      TEMPO 0121/0124 OVC025
     FM020000 05008KT P6SM VCSH OVC025
     FM020500 04008KT P6SM BKN040=

USA.gov is the U.S. government's official web portal to all federal, state and local government web resources and services.